createdAt,value
2023-07-10T00:04:44.023Z,25.56
2023-07-10T00:09:46.349Z,25.45
2023-07-10T00:14:50.281Z,25.48
2023-07-10T00:19:53.165Z,25.49
2023-07-10T00:24:55.560Z,25.53
2023-07-10T00:29:59.349Z,25.43
2023-07-10T00:35:02.187Z,25.57
2023-07-10T00:40:19.167Z,25.49
2023-07-10T00:45:23.008Z,25.44
2023-07-10T00:50:36.408Z,25.60
2023-07-10T00:55:40.422Z,25.54
2023-07-10T01:01:04.564Z,25.59
2023-07-10T01:06:23.750Z,25.58
2023-07-10T01:11:27.042Z,25.57
2023-07-10T01:16:31.817Z,25.44
2023-07-10T01:21:38.885Z,25.54
2023-07-10T01:26:42.039Z,25.53
2023-07-10T01:31:46.734Z,25.49
2023-07-10T01:36:50.867Z,25.31
2023-07-10T01:41:53.796Z,25.35
2023-07-10T01:46:57.637Z,25.41
2023-07-10T01:52:03.555Z,25.28
2023-07-10T01:57:07.512Z,25.34
2023-07-10T02:02:12.077Z,25.41
2023-07-10T02:07:15.163Z,25.30
2023-07-10T02:12:17.548Z,25.19
2023-07-10T02:17:20.628Z,25.30
2023-07-10T02:22:23.989Z,25.35
2023-07-10T02:27:26.337Z,25.29
2023-07-10T02:32:29.896Z,25.32
2023-07-10T02:37:32.168Z,25.38
2023-07-10T02:42:35.767Z,25.35
2023-07-10T02:47:39.842Z,25.01
2023-07-10T02:52:43.333Z,25.34
2023-07-10T02:57:45.831Z,25.55
2023-07-10T03:02:48.387Z,25.79
2023-07-10T03:07:51.850Z,26.08
2023-07-10T03:12:54.556Z,26.48
2023-07-10T03:17:57.378Z,26.48
2023-07-10T03:23:00.290Z,26.52
2023-07-10T03:28:03.183Z,26.66
2023-07-10T03:33:06.196Z,26.74
2023-07-10T03:38:10.157Z,26.78
2023-07-10T03:43:13.471Z,26.40
2023-07-10T03:48:16.305Z,26.58
2023-07-10T03:53:19.553Z,26.76
2023-07-10T03:58:26.302Z,26.60
2023-07-10T04:03:32.201Z,26.89
2023-07-10T04:08:37.604Z,27.06
2023-07-10T04:13:40.144Z,27.43
2023-07-10T04:18:43.696Z,27.59
2023-07-10T04:23:47.579Z,27.72
2023-07-10T04:28:52.856Z,27.82
2023-07-10T04:33:58.759Z,27.96
2023-07-10T04:39:01.340Z,28.07
2023-07-10T04:44:04.322Z,28.33
2023-07-10T04:49:07.118Z,28.25
2023-07-10T04:54:11.755Z,28.86
2023-07-10T04:59:16.645Z,29.42
2023-07-10T05:04:19.022Z,29.20
2023-07-10T05:09:21.917Z,29.08
2023-07-10T05:14:24.559Z,29.10
2023-07-10T05:19:27.788Z,28.69
2023-07-10T05:24:31.961Z,28.40
2023-07-10T05:29:34.549Z,28.32
2023-07-10T05:34:37.588Z,27.90
2023-07-10T05:39:40.122Z,27.71
2023-07-10T05:44:44.387Z,27.22
2023-07-10T05:49:50.923Z,26.87
2023-07-10T05:54:55.257Z,27.01
2023-07-10T05:59:58.150Z,26.89
2023-07-10T06:05:00.716Z,26.27
2023-07-10T06:10:03.945Z,26.67
2023-07-10T06:15:08.528Z,26.79
2023-07-10T06:20:11.304Z,26.71
2023-07-10T06:25:15.084Z,26.94
2023-07-10T06:30:17.474Z,26.81
2023-07-10T06:35:20.536Z,27.00
2023-07-10T06:40:23.277Z,26.97
2023-07-10T06:45:26.697Z,26.93
2023-07-10T06:50:31.199Z,26.84
2023-07-10T06:55:33.716Z,26.67
2023-07-10T07:00:36.385Z,26.62
2023-07-10T07:05:42.416Z,26.55
2023-07-10T07:10:46.699Z,26.63
2023-07-10T07:15:50.900Z,26.76
2023-07-10T07:20:55.258Z,26.79
2023-07-10T07:25:58.702Z,26.93
2023-07-10T07:31:06.836Z,27.19
2023-07-10T07:36:09.888Z,27.40
2023-07-10T07:41:13.144Z,27.42
2023-07-10T07:46:16.633Z,27.33
2023-07-10T07:51:19.063Z,27.13
2023-07-10T07:56:22.006Z,27.14
2023-07-10T08:01:25.487Z,27.11
2023-07-10T08:06:34.230Z,26.90
2023-07-10T08:11:37.126Z,27.28
2023-07-10T08:16:41.625Z,27.28
2023-07-10T08:21:44.609Z,27.57
2023-07-10T08:26:48.218Z,27.56
2023-07-10T08:31:51.087Z,27.55
2023-07-10T08:36:54.941Z,27.43
2023-07-10T08:42:02.870Z,27.29
2023-07-10T08:47:17.538Z,27.10
2023-07-10T08:52:34.511Z,26.85
2023-07-10T08:57:40.132Z,26.76
2023-07-10T09:03:01.750Z,26.89
2023-07-10T09:08:08.053Z,26.91
2023-07-10T09:13:20.595Z,26.80
2023-07-10T09:18:30.023Z,26.83
2023-07-10T09:23:36.043Z,26.66
2023-07-10T09:28:40.517Z,26.48
2023-07-10T09:34:02.705Z,26.19
2023-07-10T09:39:05.487Z,25.97
2023-07-10T09:44:21.509Z,25.90
2023-07-10T09:49:24.935Z,25.81
2023-07-10T09:54:40.009Z,25.53
2023-07-10T09:59:50.541Z,25.62
2023-07-10T10:05:14.588Z,25.61
2023-07-10T10:10:28.958Z,25.42
2023-07-10T10:15:54.256Z,25.27
2023-07-10T10:20:58.220Z,25.08
2023-07-10T10:26:18.280Z,24.90
2023-07-10T10:31:27.867Z,24.46
2023-07-10T10:36:47.183Z,24.10
2023-07-10T10:42:04.932Z,23.66
2023-07-10T10:47:39.347Z,23.29
2023-07-10T10:53:07.517Z,22.78
2023-07-10T10:58:48.010Z,22.99
2023-07-10T11:03:56.312Z,22.92
2023-07-10T11:09:04.439Z,22.73
2023-07-10T11:14:08.812Z,22.77
2023-07-10T11:19:40.308Z,22.63
2023-07-10T11:24:50.792Z,22.49
2023-07-10T11:30:17.041Z,22.47
2023-07-10T11:35:22.052Z,22.48
2023-07-10T11:40:28.595Z,22.39
2023-07-10T11:45:45.128Z,22.44
2023-07-10T11:50:50.129Z,22.34
2023-07-10T11:55:56.089Z,22.33
2023-07-10T12:01:17.529Z,22.25
2023-07-10T12:06:26.674Z,22.56
2023-07-10T12:11:35.458Z,22.49
2023-07-10T12:17:11.037Z,22.37
2023-07-10T12:22:26.709Z,22.38
2023-07-10T12:32:43.714Z,22.67
2023-07-10T12:37:49.764Z,22.73
2023-07-10T12:42:52.689Z,22.72
2023-07-10T12:48:14.732Z,22.73
2023-07-10T12:53:23.519Z,22.93
2023-07-10T12:58:35.709Z,22.94
2023-07-10T13:03:38.551Z,22.77
2023-07-10T13:08:42.200Z,22.83
2023-07-10T13:13:46.155Z,23.02
2023-07-10T13:18:49.421Z,22.98
2023-07-10T13:23:56.242Z,23.02
2023-07-10T13:28:58.714Z,23.01
2023-07-10T13:34:01.281Z,22.98
2023-07-10T13:39:04.492Z,23.02
2023-07-10T13:44:07.619Z,22.97
2023-07-10T13:49:14.561Z,22.90
2023-07-10T13:54:17.788Z,23.08
2023-07-10T13:59:21.852Z,23.04
2023-07-10T14:04:24.431Z,23.07
2023-07-10T14:09:32.083Z,23.02
2023-07-10T14:14:36.483Z,23.19
2023-07-10T14:19:38.882Z,23.10
2023-07-10T14:24:42.126Z,22.98
2023-07-10T14:29:45.100Z,23.07
2023-07-10T14:34:49.315Z,23.12
2023-07-10T14:39:52.592Z,22.95
2023-07-10T14:44:55.791Z,22.85
2023-07-10T14:49:58.775Z,22.77
2023-07-10T14:55:04.651Z,22.81
2023-07-10T15:00:20.079Z,22.81
2023-07-10T15:05:25.068Z,22.62
2023-07-10T15:10:29.613Z,22.70
2023-07-10T15:15:38.844Z,22.67
2023-07-10T15:20:41.821Z,22.54
2023-07-10T15:25:44.785Z,22.54
2023-07-10T15:30:55.555Z,22.47
2023-07-10T15:35:59.963Z,22.72
2023-07-10T15:41:04.114Z,22.67
2023-07-10T15:46:06.853Z,22.67
2023-07-10T15:51:24.352Z,22.73
2023-07-10T15:56:32.891Z,22.74
2023-07-10T16:01:36.156Z,22.60
2023-07-10T16:06:40.131Z,22.47
2023-07-10T16:11:43.325Z,22.61
2023-07-10T16:16:46.400Z,22.29
2023-07-10T16:21:53.530Z,22.50
2023-07-10T16:26:56.622Z,22.39
2023-07-10T16:31:59.047Z,22.46
2023-07-10T16:37:01.592Z,22.47
2023-07-10T16:42:04.358Z,22.40
2023-07-10T16:47:19.115Z,22.22
2023-07-10T16:52:21.652Z,22.21
2023-07-10T16:57:26.018Z,22.19
2023-07-10T17:02:28.747Z,22.23
2023-07-10T17:07:31.148Z,22.04
2023-07-10T17:12:33.882Z,22.19
2023-07-10T17:17:36.729Z,22.14
2023-07-10T17:22:39.289Z,22.12
2023-07-10T17:27:42.596Z,22.10
2023-07-10T17:32:46.337Z,22.14
2023-07-10T17:37:50.993Z,22.09
2023-07-10T17:42:53.563Z,22.10
2023-07-10T17:47:55.979Z,21.99
2023-07-10T17:52:58.523Z,21.91
2023-07-10T17:58:12.517Z,22.17
2023-07-10T18:03:17.701Z,22.08
2023-07-10T18:08:31.416Z,22.14
2023-07-10T18:13:40.149Z,22.05
2023-07-10T18:18:43.055Z,22.00
2023-07-10T18:23:45.536Z,21.98
2023-07-10T18:28:50.795Z,21.84
2023-07-10T18:33:56.395Z,21.95
2023-07-10T18:38:59.743Z,21.94
2023-07-10T18:44:05.466Z,21.87
2023-07-10T18:49:24.430Z,21.91
2023-07-10T18:54:27.703Z,22.00
2023-07-10T18:59:30.446Z,21.87
2023-07-10T19:04:33.105Z,21.70
2023-07-10T19:09:35.595Z,21.75
2023-07-10T19:14:38.274Z,21.77
2023-07-10T19:19:47.527Z,21.75
2023-07-10T19:24:50.097Z,21.63
2023-07-10T19:29:52.496Z,21.67
2023-07-10T19:34:54.955Z,21.66
2023-07-10T19:39:58.995Z,21.73
2023-07-10T19:45:02.721Z,21.70
2023-07-10T19:50:19.220Z,21.61
2023-07-10T19:55:22.124Z,21.69
2023-07-10T20:00:28.920Z,21.66
2023-07-10T20:05:31.775Z,21.59
2023-07-10T20:10:35.146Z,21.30
2023-07-10T20:15:38.594Z,21.66
2023-07-10T20:20:41.570Z,21.66
2023-07-10T20:25:46.737Z,21.61
2023-07-10T20:30:50.638Z,21.51
2023-07-10T20:35:54.382Z,21.01
2023-07-10T20:40:57.795Z,21.14
2023-07-10T20:46:11.036Z,21.29
2023-07-10T20:51:26.062Z,21.30
2023-07-10T20:56:32.013Z,21.33
2023-07-10T21:01:34.558Z,21.20
2023-07-10T21:06:38.068Z,21.16
2023-07-10T21:11:40.404Z,21.03
2023-07-10T21:16:45.323Z,21.12
2023-07-10T21:21:49.671Z,20.86
2023-07-10T21:26:58.392Z,20.72
2023-07-10T21:32:01.430Z,20.89
2023-07-10T21:37:05.136Z,21.20
2023-07-10T21:42:18.458Z,20.89
2023-07-10T21:47:22.004Z,21.01
2023-07-10T21:52:25.572Z,21.06
2023-07-10T21:57:28.669Z,21.07
2023-07-10T22:02:31.752Z,21.00
2023-07-10T22:07:34.350Z,20.94
2023-07-10T22:12:36.716Z,20.83
2023-07-10T22:17:40.673Z,20.72
2023-07-10T22:22:43.325Z,20.94
2023-07-10T22:27:46.553Z,20.91
2023-07-10T22:32:49.063Z,20.80
2023-07-10T22:37:53.254Z,20.67
2023-07-10T22:42:56.234Z,20.65
2023-07-10T22:47:59.532Z,20.61
2023-07-10T22:53:03.029Z,20.49
2023-07-10T22:58:07.018Z,20.55
2023-07-10T23:03:10.613Z,20.42
2023-07-10T23:08:13.653Z,20.43
2023-07-10T23:13:16.353Z,20.42
2023-07-10T23:18:19.080Z,20.53
2023-07-10T23:23:22.470Z,20.46
2023-07-10T23:28:25.054Z,20.54
2023-07-10T23:33:27.412Z,20.39
2023-07-10T23:38:29.822Z,20.59
2023-07-10T23:43:32.384Z,20.56
2023-07-10T23:48:36.565Z,20.37
2023-07-10T23:53:40.594Z,20.42
2023-07-10T23:58:44.216Z,20.42
